Time;durP1;ratioP1;P1;durP2;ratioP2;P2;SDS_P1;SDS_P2;PMS_P1;PMS_P2;Temp;Humidity;BMP_temperature;BMP_pressure;BME280_temperature;BME280_humidity;BME280_pressure;Samples;Min_cycle;Max_cycle;Signal;HPM_P1;HPM_P2
2022/06/17 00:01:23;;;;;;;9.02;3.95;;;16.60;99.90;;;;;;5030509;28;20025;-76
2022/06/17 00:03:49;;;;;;;4.72;3.55;;;16.60;99.90;;;;;;5021917;28;20038;-76
2022/06/17 00:06:15;;;;;;;7.53;4.00;;;16.60;99.90;;;;;;5027663;28;20091;-76
2022/06/17 00:08:45;;;;;;;7.35;3.45;;;16.50;99.90;;;;;;5031274;28;20032;-76
2022/06/17 00:11:17;;;;;;;4.60;3.60;;;16.50;99.90;;;;;;5030230;28;20471;-76
2022/06/17 00:13:43;;;;;;;6.70;4.00;;;16.40;99.90;;;;;;5020630;28;20040;-76
2022/06/17 00:16:11;;;;;;;5.15;3.72;;;16.40;99.90;;;;;;5019908;28;20119;-76
2022/06/17 00:18:37;;;;;;;5.93;3.83;;;16.40;99.90;;;;;;5021451;28;20048;-76
2022/06/17 00:21:03;;;;;;;6.35;3.92;;;16.40;99.90;;;;;;5030363;28;20444;-76
2022/06/17 00:23:29;;;;;;;11.32;3.88;;;16.30;99.90;;;;;;5030710;28;20034;-76
2022/06/17 00:25:54;;;;;;;7.65;3.75;;;16.30;99.90;;;;;;5030624;28;20520;-75
2022/06/17 00:28:23;;;;;;;8.63;3.72;;;16.30;99.90;;;;;;5030108;28;20071;-75
2022/06/17 00:30:50;;;;;;;9.57;4.25;;;16.30;99.90;;;;;;5030271;28;20032;-75
2022/06/17 00:33:17;;;;;;;11.45;4.10;;;16.20;99.90;;;;;;5030850;28;20037;-76
2022/06/17 00:35:52;;;;;;;7.28;3.88;;;16.20;99.90;;;;;;5018248;28;20048;-76
2022/06/17 00:38:23;;;;;;;8.98;4.68;;;16.20;99.90;;;;;;5029861;28;20101;-75
2022/06/17 00:40:49;;;;;;;5.70;3.97;;;16.20;99.90;;;;;;5030939;28;20056;-75
2022/06/17 00:43:36;;;;;;;5.45;3.60;;;16.10;99.90;;;;;;5030794;28;20029;-75
2022/06/17 00:46:15;;;;;;;6.22;3.72;;;16.10;99.90;;;;;;5028782;28;20029;-76
2022/06/17 00:48:45;;;;;;;6.40;3.90;;;16.10;99.90;;;;;;5031044;28;20098;-76
2022/06/17 00:51:21;;;;;;;6.30;3.90;;;16.00;99.90;;;;;;5030139;28;20025;-76
2022/06/17 00:53:53;;;;;;;9.00;3.75;;;16.00;99.90;;;;;;5030262;28;20099;-75
2022/06/17 00:56:24;;;;;;;6.97;3.90;;;15.90;99.90;;;;;;5029368;28;20482;-76
2022/06/17 00:59:10;;;;;;;7.05;3.88;;;15.90;99.90;;;;;;5029627;28;20044;-76
2022/06/17 01:02:02;;;;;;;5.97;4.10;;;15.90;99.90;;;;;;5027412;28;20080;-75
2022/06/17 01:04:35;;;;;;;9.25;4.20;;;15.90;99.90;;;;;;5029811;28;20042;-75
2022/06/17 01:07:23;;;;;;;7.15;4.25;;;15.80;99.90;;;;;;5022438;28;20029;-76
2022/06/17 01:09:58;;;;;;;6.13;4.53;;;15.80;99.90;;;;;;5035637;28;20501;-75
2022/06/17 01:12:40;;;;;;;6.43;3.67;;;15.80;99.90;;;;;;5044005;28;20065;-75
2022/06/17 01:15:07;;;;;;;8.13;4.18;;;15.70;99.90;;;;;;5032589;28;20029;-76
2022/06/17 01:17:38;;;;;;;9.25;4.60;;;15.70;99.90;;;;;;5043729;28;20063;-75
2022/06/17 01:20:05;;;;;;;9.15;4.57;;;15.60;99.90;;;;;;5040637;28;20040;-75
2022/06/17 01:22:39;;;;;;;9.13;4.97;;;15.60;99.90;;;;;;5047887;28;20032;-75
2022/06/17 01:25:12;;;;;;;8.38;4.28;;;15.50;99.90;;;;;;5044762;28;20104;-75
2022/06/17 01:27:44;;;;;;;8.73;4.50;;;15.50;99.90;;;;;;5034033;28;20088;-76
2022/06/17 01:30:14;;;;;;;11.80;4.63;;;15.40;99.90;;;;;;5041166;28;20035;-75
2022/06/17 01:32:51;;;;;;;6.47;4.95;;;15.40;99.90;;;;;;5056856;28;20044;-76
2022/06/17 01:35:19;;;;;;;7.57;4.45;;;15.30;99.90;;;;;;5056134;28;20036;-76
2022/06/17 01:37:45;;;;;;;6.72;4.70;;;15.30;99.90;;;;;;5036514;28;20029;-75
2022/06/17 01:40:12;;;;;;;4.93;4.20;;;15.20;99.90;;;;;;5052396;28;20027;-76
2022/06/17 01:42:39;;;;;;;5.80;4.50;;;15.20;99.90;;;;;;5056880;28;20375;-76
2022/06/17 01:45:08;;;;;;;9.02;4.15;;;15.10;99.90;;;;;;5056850;28;20025;-75
2022/06/17 01:47:37;;;;;;;7.70;4.53;;;15.20;99.90;;;;;;5025229;28;20117;-75
2022/06/17 01:50:11;;;;;;;7.85;4.35;;;15.10;99.90;;;;;;5049251;28;20099;-76
2022/06/17 01:52:41;;;;;;;8.07;4.53;;;15.10;99.90;;;;;;5056669;28;20486;-75
2022/06/17 01:55:27;;;;;;;6.50;4.60;;;15.10;99.90;;;;;;5056564;28;20520;-76
2022/06/17 01:58:02;;;;;;;9.35;4.40;;;15.10;99.90;;;;;;5032042;28;20035;-75
2022/06/17 02:00:29;;;;;;;5.90;4.07;;;15.10;99.90;;;;;;5044597;28;20087;-76
2022/06/17 02:03:18;;;;;;;10.52;4.95;;;15.10;99.90;;;;;;5061488;28;20061;-75
2022/06/17 02:05:47;;;;;;;5.57;4.18;;;15.10;99.90;;;;;;5050451;28;20065;-75
2022/06/17 02:08:13;;;;;;;10.32;4.97;;;15.00;99.90;;;;;;5050057;28;20032;-75
2022/06/17 02:10:42;;;;;;;7.85;4.72;;;15.00;99.90;;;;;;5050636;28;20025;-75
2022/06/17 02:13:09;;;;;;;8.23;4.72;;;15.00;99.90;;;;;;5037981;28;20049;-75
2022/06/17 02:15:36;;;;;;;8.95;5.68;;;15.00;99.90;;;;;;5048713;28;20034;-75
2022/06/17 02:18:07;;;;;;;11.20;4.82;;;14.90;99.90;;;;;;5043966;28;20029;-75
2022/06/17 02:20:33;;;;;;;7.63;4.40;;;14.90;99.90;;;;;;5047722;28;20390;-75
2022/06/17 02:23:00;;;;;;;9.05;4.88;;;14.90;99.90;;;;;;5039630;28;20021;-75
2022/06/17 02:25:30;;;;;;;11.40;4.65;;;14.80;99.90;;;;;;5049655;28;20025;-76
2022/06/17 02:27:59;;;;;;;6.80;4.35;;;14.80;99.90;;;;;;5040111;28;20048;-75
2022/06/17 02:30:26;;;;;;;7.50;5.00;;;14.80;99.90;;;;;;5026075;28;20053;-75
2022/06/17 02:32:53;;;;;;;6.15;3.97;;;14.80;99.90;;;;;;5046393;28;20056;-75
2022/06/17 02:35:44;;;;;;;8.45;4.50;;;14.70;99.90;;;;;;5054517;28;20192;-75
2022/06/17 02:38:16;;;;;;;7.20;4.20;;;14.70;99.90;;;;;;5048446;28;20032;-75
2022/06/17 02:40:46;;;;;;;7.78;4.97;;;14.70;99.90;;;;;;5054368;28;20025;-75
2022/06/17 02:43:17;;;;;;;6.45;3.85;;;14.70;99.90;;;;;;5054221;28;20131;-75
2022/06/17 02:45:46;;;;;;;7.55;4.30;;;14.70;99.90;;;;;;5053902;28;20032;-75
2022/06/17 02:48:25;;;;;;;8.43;4.57;;;14.70;99.90;;;;;;5049949;28;20017;-76
2022/06/17 02:50:53;;;;;;;7.38;4.15;;;14.70;99.90;;;;;;5039692;28;20030;-75
2022/06/17 02:53:28;;;;;;;5.75;4.40;;;14.70;99.90;;;;;;5048383;28;20025;-75
2022/06/17 02:55:55;;;;;;;9.32;4.38;;;14.60;99.90;;;;;;5023425;28;20034;-75
2022/06/17 02:58:39;;;;;;;8.25;4.07;;;14.60;99.90;;;;;;5021833;28;20030;-75
2022/06/17 03:01:14;;;;;;;7.75;4.55;;;14.50;99.90;;;;;;5016064;28;20029;-75
2022/06/17 03:03:40;;;;;;;8.52;4.05;;;14.50;99.90;;;;;;5033665;28;20056;-75
2022/06/17 03:06:14;;;;;;;5.63;4.20;;;14.40;99.90;;;;;;5033761;28;20021;-75
2022/06/17 03:08:42;;;;;;;10.73;4.47;;;14.40;99.90;;;;;;5017767;28;20033;-75
2022/06/17 03:11:09;;;;;;;5.53;3.78;;;14.40;99.90;;;;;;5017721;28;20092;-75
2022/06/17 03:13:47;;;;;;;6.47;4.38;;;14.40;99.90;;;;;;5023114;28;20014;-75
2022/06/17 03:16:15;;;;;;;6.70;4.32;;;14.40;99.90;;;;;;5021728;28;20026;-75
2022/06/17 03:18:42;;;;;;;5.57;3.97;;;14.30;99.90;;;;;;5014535;28;20057;-75
2022/06/17 03:21:08;;;;;;;6.47;4.15;;;14.30;99.90;;;;;;5027277;28;20021;-75
2022/06/17 03:23:53;;;;;;;6.28;4.10;;;14.30;99.90;;;;;;5013549;28;20021;-75
2022/06/17 03:26:22;;;;;;;;;;;14.30;99.90;;;;;;4998030;28;20419;-75
2022/06/17 03:28:49;;;;;;;6.50;4.32;;;14.30;99.90;;;;;;5022661;28;19909;-75
2022/06/17 03:31:22;;;;;;;7.95;4.45;;;14.30;99.90;;;;;;5026974;28;20022;-75
2022/06/17 03:33:59;;;;;;;6.13;4.57;;;14.30;99.90;;;;;;5008617;28;20026;-75
2022/06/17 03:36:33;;;;;;;6.53;4.10;;;14.30;99.90;;;;;;5026923;28;20045;-75
2022/06/17 03:39:02;;;;;;;9.30;4.67;;;14.20;99.90;;;;;;5013379;28;20065;-75
2022/06/17 03:41:41;;;;;;;9.68;5.18;;;14.20;99.90;;;;;;5027780;28;20409;-75
2022/06/17 03:44:14;;;;;;;10.10;4.90;;;14.20;99.90;;;;;;5019544;28;20029;-75
2022/06/17 03:46:49;;;;;;;7.25;4.40;;;14.20;99.90;;;;;;5021565;28;20122;-75
2022/06/17 03:49:41;;;;;;;11.63;5.00;;;14.20;99.90;;;;;;5022015;28;20033;-75
2022/06/17 03:52:37;;;;;;;11.13;4.68;;;14.10;99.90;;;;;;5008069;28;20044;-75
2022/06/17 03:55:04;;;;;;;9.18;4.90;;;14.00;99.90;;;;;;5026034;28;20052;-75
2022/06/17 03:57:32;;;;;;;7.95;4.93;;;14.00;99.90;;;;;;5044937;28;20025;-75
2022/06/17 03:59:58;;;;;;;9.10;5.00;;;14.00;99.90;;;;;;5039880;28;20044;-75
2022/06/17 04:02:29;;;;;;;12.68;5.22;;;14.00;99.90;;;;;;5052432;28;20025;-75
2022/06/17 04:04:55;;;;;;;8.73;5.85;;;14.00;99.90;;;;;;5052592;28;20025;-75
2022/06/17 04:07:21;;;;;;;11.63;5.18;;;14.00;99.90;;;;;;5036874;28;20379;-75
2022/06/17 04:09:54;;;;;;;14.57;5.43;;;14.00;99.90;;;;;;5026601;28;20048;-75
2022/06/17 04:12:27;;;;;;;6.93;4.68;;;14.00;99.90;;;;;;5035635;28;20079;-76
2022/06/17 04:15:07;;;;;;;9.23;5.00;;;14.00;99.90;;;;;;5038215;28;20699;-75
2022/06/17 04:17:45;;;;;;;9.25;4.85;;;14.00;99.90;;;;;;5038660;28;20075;-76
2022/06/17 04:20:13;;;;;;;8.07;4.60;;;14.10;99.90;;;;;;5034785;28;20098;-75
2022/06/17 04:22:41;;;;;;;9.10;4.72;;;14.10;99.90;;;;;;5048159;28;20032;-81
2022/06/17 04:25:14;;;;;;;5.97;4.43;;;14.10;99.90;;;;;;5028151;28;20037;-74
2022/06/17 04:27:56;;;;;;;10.38;4.70;;;14.20;99.90;;;;;;5024841;28;20160;-74
2022/06/17 04:30:26;;;;;;;6.18;4.40;;;14.20;99.90;;;;;;5039785;28;20025;-74
2022/06/17 04:32:56;;;;;;;9.45;5.30;;;14.30;99.90;;;;;;5031082;28;20443;-74
2022/06/17 04:35:22;;;;;;;8.57;4.22;;;14.40;99.90;;;;;;5025542;28;20025;-74
2022/06/17 04:37:47;;;;;;;7.90;4.43;;;14.40;99.90;;;;;;5035196;28;20797;-74
2022/06/17 04:40:39;;;;;;;8.93;4.55;;;14.50;99.90;;;;;;5025914;28;20025;-74
2022/06/17 04:43:30;;;;;;;8.80;4.70;;;14.60;99.90;;;;;;5035932;28;20047;-74
2022/06/17 04:46:24;;;;;;;10.50;4.80;;;14.70;99.90;;;;;;5029079;28;20025;-74
2022/06/17 04:48:51;;;;;;;8.27;4.50;;;14.70;99.90;;;;;;5030894;28;20033;-74
2022/06/17 04:51:17;;;;;;;8.88;4.65;;;14.90;99.90;;;;;;5031883;28;20060;-74
2022/06/17 04:53:45;;;;;;;8.65;4.72;;;15.00;99.90;;;;;;5036399;28;20139;-74
2022/06/17 04:56:20;;;;;;;8.18;4.55;;;15.10;99.90;;;;;;5041884;28;20135;-74
2022/06/17 04:58:46;;;;;;;9.00;4.03;;;15.20;99.90;;;;;;5032780;28;20033;-74
2022/06/17 05:01:17;;;;;;;10.80;4.13;;;15.30;99.90;;;;;;5032414;28;20071;-74
2022/06/17 05:03:43;;;;;;;6.45;4.50;;;15.40;99.90;;;;;;5036035;28;20386;-74
2022/06/17 05:06:09;;;;;;;7.03;4.35;;;15.50;99.90;;;;;;5038550;28;20028;-74
2022/06/17 05:08:41;;;;;;;9.85;4.57;;;15.60;99.90;;;;;;5032163;28;20018;-74
2022/06/17 05:11:31;;;;;;;6.85;4.15;;;15.70;99.90;;;;;;5027109;28;20108;-75
2022/06/17 05:14:23;;;;;;;7.07;3.85;;;15.80;99.90;;;;;;5028839;28;20049;-74
2022/06/17 05:16:48;;;;;;;5.35;3.95;;;16.00;99.90;;;;;;4991060;28;20068;-74
2022/06/17 05:19:14;;;;;;;8.77;3.50;;;16.10;99.90;;;;;;5028788;28;20068;-74
2022/06/17 05:21:39;;;;;;;7.03;3.75;;;16.30;99.90;;;;;;5030930;28;20033;-74
2022/06/17 05:24:05;;;;;;;5.65;3.80;;;16.50;99.90;;;;;;5031753;28;20096;-74
2022/06/17 05:26:31;;;;;;;6.60;3.88;;;16.60;99.90;;;;;;5031562;28;20103;-74
2022/06/17 05:28:57;;;;;;;6.20;3.33;;;16.70;99.90;;;;;;5030208;28;20014;-74
2022/06/17 05:31:26;;;;;;;6.88;3.33;;;16.90;99.90;;;;;;5026635;28;20053;-74
2022/06/17 05:33:52;;;;;;;8.40;3.90;;;16.90;99.90;;;;;;5029095;28;20022;-74
2022/06/17 05:36:17;;;;;;;6.88;3.55;;;17.10;99.90;;;;;;5031413;28;20040;-74
2022/06/17 05:38:43;;;;;;;8.18;3.50;;;17.20;99.90;;;;;;5027973;28;20037;-74
2022/06/17 05:41:17;;;;;;;6.88;3.40;;;17.30;99.90;;;;;;5044552;28;20048;-74
2022/06/17 05:43:43;;;;;;;7.30;3.40;;;17.50;99.90;;;;;;5033068;28;20487;-74
2022/06/17 05:46:20;;;;;;;5.40;3.40;;;17.70;99.90;;;;;;5040101;28;20067;-77
2022/06/17 05:48:46;;;;;;;6.80;3.17;;;17.80;99.90;;;;;;5026164;28;20031;-76
2022/06/17 05:51:12;;;;;;;5.15;3.40;;;18.00;99.90;;;;;;5029516;28;20462;-76
2022/06/17 05:53:40;;;;;;;5.43;2.97;;;18.10;99.90;;;;;;5030039;28;20029;-76
2022/06/17 05:56:06;;;;;;;5.13;3.58;;;18.20;99.90;;;;;;5026019;28;20049;-76
2022/06/17 05:58:31;;;;;;;8.32;3.50;;;18.20;99.90;;;;;;5029183;28;20036;-76
2022/06/17 06:00:57;;;;;;;7.50;3.17;;;18.20;99.90;;;;;;5033471;28;20053;-76
2022/06/17 06:03:25;;;;;;;7.55;3.80;;;18.20;99.90;;;;;;5034438;28;20033;-76
2022/06/17 06:05:51;;;;;;;8.15;3.63;;;18.20;99.90;;;;;;5034437;28;20347;-76
2022/06/17 06:08:17;;;;;;;7.95;3.33;;;18.30;99.90;;;;;;5030924;28;20028;-75
2022/06/17 06:10:43;;;;;;;5.75;3.47;;;18.40;99.90;;;;;;5023063;28;20470;-75
2022/06/17 06:13:23;;;;;;;5.72;2.83;;;18.40;99.90;;;;;;5029735;28;20049;-76
2022/06/17 06:15:53;;;;;;;5.00;3.45;;;18.40;99.90;;;;;;5037679;28;20040;-76
2022/06/17 06:18:23;;;;;;;6.38;3.60;;;18.40;99.90;;;;;;5024304;28;20049;-75
2022/06/17 06:20:48;;;;;;;8.60;3.45;;;18.50;99.90;;;;;;5046362;28;20485;-75
2022/06/17 06:23:14;;;;;;;5.32;3.30;;;18.50;99.90;;;;;;5045587;28;20091;-75
2022/06/17 06:25:40;;;;;;;6.35;3.58;;;18.60;99.90;;;;;;5041352;28;20180;-76
2022/06/17 06:28:15;;;;;;;6.07;4.20;;;18.70;99.90;;;;;;5034104;28;20038;-76
2022/06/17 06:30:41;;;;;;;4.72;3.67;;;18.70;99.90;;;;;;5047820;28;20074;-77
2022/06/17 06:33:09;;;;;;;13.25;3.28;;;18.70;99.90;;;;;;5037011;28;20168;-76
2022/06/17 06:35:38;;;;;;;6.50;3.60;;;18.70;99.90;;;;;;5032543;28;20034;-76
2022/06/17 06:38:05;;;;;;;6.68;3.55;;;18.70;99.90;;;;;;5027429;28;20034;-74
2022/06/17 06:40:32;;;;;;;6.03;3.10;;;18.80;99.90;;;;;;5020090;28;20041;-74
2022/06/17 06:42:58;;;;;;;6.13;3.22;;;18.90;99.90;;;;;;5028696;28;20427;-74
2022/06/17 06:45:28;;;;;;;4.43;3.38;;;19.10;99.90;;;;;;5035424;28;20065;-73
2022/06/17 06:47:56;;;;;;;6.32;3.30;;;19.20;99.90;;;;;;5029623;28;20033;-73
2022/06/17 06:50:25;;;;;;;7.50;3.00;;;19.30;99.90;;;;;;5030335;28;20025;-73
2022/06/17 06:52:51;;;;;;;6.13;3.03;;;19.50;99.90;;;;;;5027222;28;20049;-73
2022/06/17 06:55:17;;;;;;;7.20;3.40;;;19.60;99.90;;;;;;5031988;28;20069;-73
2022/06/17 06:57:49;;;;;;;8.57;3.25;;;19.70;99.90;;;;;;5032136;28;20041;-73
2022/06/17 07:00:39;;;;;;;10.70;4.20;;;19.80;99.90;;;;;;5030305;28;20026;-73
2022/06/17 07:03:05;;;;;;;6.32;3.45;;;19.80;99.90;;;;;;5018227;28;20441;-73
2022/06/17 07:05:34;;;;;;;5.32;3.78;;;19.90;99.90;;;;;;5029685;28;20490;-73
2022/06/17 07:08:00;;;;;;;6.13;3.67;;;20.00;99.90;;;;;;5024025;28;20030;-73
2022/06/17 07:10:30;;;;;;;5.95;3.50;;;20.20;99.90;;;;;;5028707;28;20483;-73
2022/06/17 07:12:57;;;;;;;4.20;3.20;;;20.20;99.90;;;;;;5033817;28;20025;-73
2022/06/17 07:15:25;;;;;;;11.25;3.47;;;20.30;99.90;;;;;;5037919;28;20039;-73
2022/06/17 07:18:03;;;;;;;4.47;3.40;;;20.40;99.90;;;;;;5030629;28;20033;-74
2022/06/17 07:20:37;;;;;;;7.63;3.83;;;20.30;99.90;;;;;;5039292;28;20033;-76
2022/06/17 07:23:12;;;;;;;7.72;3.55;;;20.40;99.90;;;;;;5033486;28;20102;-74
2022/06/17 07:25:38;;;;;;;;;;;20.30;99.90;;;;;;5030478;28;20039;-74
2022/06/17 07:28:04;;;;;;;5.13;3.55;;;20.30;99.90;;;;;;5025524;28;19916;-74
2022/06/17 07:30:32;;;;;;;5.15;3.50;;;20.30;99.90;;;;;;5029909;28;20025;-74
2022/06/17 07:32:57;;;;;;;8.32;3.78;;;20.50;99.90;;;;;;5030415;28;20022;-74
2022/06/17 07:35:23;;;;;;;5.65;3.72;;;20.40;99.90;;;;;;5027842;28;20171;-73
2022/06/17 07:40:34;;;;;;;7.15;3.53;;;20.50;99.90;;;;;;5027042;28;20409;-74
2022/06/17 07:43:00;;;;;;;6.03;3.58;;;20.50;99.90;;;;;;5024625;28;20038;-74
2022/06/17 07:45:27;;;;;;;5.57;3.47;;;20.50;99.90;;;;;;5026035;28;20032;-74
2022/06/17 07:47:54;;;;;;;6.82;3.00;;;20.60;99.90;;;;;;5029181;28;20021;-74
2022/06/17 07:50:30;;;;;;;7.82;3.65;;;20.70;99.90;;;;;;5025523;28;20030;-73
2022/06/17 07:52:56;;;;;;;5.28;3.30;;;20.80;99.90;;;;;;5025031;28;20021;-74
2022/06/17 07:55:22;;;;;;;8.40;3.70;;;20.80;99.90;;;;;;5034066;28;20128;-74
2022/06/17 07:57:49;;;;;;;8.10;3.35;;;20.90;99.90;;;;;;5022896;28;20116;-74
2022/06/17 08:00:24;;;;;;;9.25;3.60;;;21.00;99.90;;;;;;5031373;28;20075;-74
2022/06/17 08:02:50;;;;;;;12.98;3.80;;;21.00;99.90;;;;;;5028543;28;20410;-74
2022/06/17 08:05:17;;;;;;;5.30;3.42;;;21.10;99.90;;;;;;5026221;28;20072;-75
2022/06/17 08:07:43;;;;;;;5.07;3.20;;;21.10;99.90;;;;;;5028217;28;20026;-74
2022/06/17 08:10:10;;;;;;;11.60;3.78;;;21.10;99.90;;;;;;5028820;28;20029;-74
2022/06/17 08:12:36;;;;;;;7.47;3.28;;;21.20;99.90;;;;;;5029500;28;20048;-74
2022/06/17 08:15:02;;;;;;;6.30;3.33;;;21.30;99.90;;;;;;5020278;28;20507;-74
2022/06/17 08:17:30;;;;;;;9.68;3.10;;;21.50;99.90;;;;;;5027415;28;20048;-74
2022/06/17 08:19:56;;;;;;;10.68;3.45;;;21.50;99.90;;;;;;5025460;28;20025;-74
2022/06/17 08:22:26;;;;;;;8.15;3.35;;;21.40;99.90;;;;;;5022642;28;20109;-75
2022/06/17 08:24:53;;;;;;;6.82;3.10;;;21.40;99.90;;;;;;5025668;28;20060;-75
2022/06/17 08:27:19;;;;;;;6.03;3.13;;;21.40;99.90;;;;;;5032695;28;20025;-76
2022/06/17 08:29:44;;;;;;;8.52;4.00;;;21.40;99.90;;;;;;5027755;28;20037;-75
2022/06/17 08:34:56;;;;;;;6.70;3.50;;;21.60;99.90;;;;;;5030915;28;20039;-75
2022/06/17 08:37:22;;;;;;;5.10;3.10;;;21.60;99.90;;;;;;5029929;28;20033;-76
2022/06/17 08:39:49;;;;;;;6.03;3.50;;;21.70;99.90;;;;;;5025145;28;20067;-76
2022/06/17 08:42:26;;;;;;;6.75;3.60;;;21.90;99.90;;;;;;5021973;28;20053;-76
2022/06/17 08:45:19;;;;;;;7.65;3.40;;;21.90;99.90;;;;;;5031603;28;20029;-75
2022/06/17 08:47:47;;;;;;;9.90;3.25;;;21.90;99.90;;;;;;5026187;28;20119;-76
2022/06/17 08:50:31;;;;;;;5.50;3.28;;;21.90;99.90;;;;;;5023851;28;20057;-75
2022/06/17 08:53:08;;;;;;;6.93;2.70;;;22.00;99.90;;;;;;5028578;28;20052;-74
2022/06/17 08:56:03;;;;;;;4.82;3.10;;;22.10;99.90;;;;;;5026726;28;20075;-74
2022/06/17 08:58:46;;;;;;;5.68;3.30;;;22.30;99.90;;;;;;5028759;28;20033;-74
2022/06/17 09:01:18;;;;;;;4.68;2.95;;;22.20;99.90;;;;;;5031157;28;20056;-74
2022/06/17 09:04:03;;;;;;;8.98;3.30;;;22.30;99.90;;;;;;5026000;28;20078;-74
2022/06/17 09:06:29;;;;;;;8.23;2.85;;;22.40;99.90;;;;;;5024623;28;20061;-74
2022/06/17 09:09:32;;;;;;;5.10;2.85;;;22.40;99.90;;;;;;5032629;28;20056;-74
2022/06/17 09:12:11;;;;;;;7.85;3.38;;;22.60;99.90;;;;;;5029435;28;20110;-75
2022/06/17 09:14:49;;;;;;;7.32;2.75;;;22.70;99.90;;;;;;5026193;28;20057;-74
2022/06/17 09:17:34;;;;;;;9.27;2.78;;;22.70;99.90;;;;;;5025656;28;20025;-74
2022/06/17 09:20:03;;;;;;;5.07;2.90;;;22.90;99.90;;;;;;5023983;28;20018;-74
2022/06/17 09:22:34;;;;;;;7.65;2.65;;;23.00;99.90;;;;;;5039772;28;20079;-74
2022/06/17 09:25:05;;;;;;;6.05;2.78;;;23.10;99.90;;;;;;5050322;28;20040;-74
2022/06/17 09:27:38;;;;;;;5.70;2.58;;;23.10;99.90;;;;;;5050626;28;20036;-74
2022/06/17 09:30:08;;;;;;;4.90;2.60;;;23.20;99.90;;;;;;5052283;28;20032;-74
2022/06/17 09:32:49;;;;;;;5.75;2.60;;;23.30;99.90;;;;;;5053281;28;20052;-74
2022/06/17 09:35:23;;;;;;;5.28;2.60;;;23.50;99.90;;;;;;5050357;28;20017;-74
2022/06/17 09:38:05;;;;;;;6.72;2.33;;;23.70;99.90;;;;;;5048085;28;20028;-74
2022/06/17 09:40:41;;;;;;;4.22;2.67;;;24.00;99.90;;;;;;5029632;28;20478;-74
2022/06/17 09:43:40;;;;;;;5.78;2.47;;;24.30;99.90;;;;;;5053850;28;20382;-74
2022/06/17 09:46:13;;;;;;;5.00;2.40;;;24.60;99.90;;;;;;5042592;28;20024;-74
2022/06/17 09:48:56;;;;;;;5.05;2.70;;;24.70;99.90;;;;;;5051134;28;20029;-74
2022/06/17 09:51:31;;;;;;;5.45;2.42;;;24.90;99.90;;;;;;5040201;28;20021;-73
2022/06/17 09:54:04;;;;;;;6.22;2.40;;;25.10;99.90;;;;;;5043669;28;20129;-74
2022/06/17 09:56:57;;;;;;;4.38;2.38;;;25.10;99.90;;;;;;5046820;28;20453;-74
2022/06/17 09:59:26;;;;;;;6.20;2.80;;;25.20;99.90;;;;;;5033195;28;20029;-73
2022/06/17 10:01:54;;;;;;;6.78;2.97;;;25.40;99.90;;;;;;5039855;28;20486;-69
2022/06/17 10:04:20;;;;;;;4.13;2.42;;;25.20;99.90;;;;;;5027304;28;20029;-69
2022/06/17 10:06:57;;;;;;;4.35;2.40;;;25.20;99.90;;;;;;5035417;28;20036;-70
2022/06/17 10:09:49;;;;;;;4.82;2.47;;;25.40;99.90;;;;;;5029552;28;20509;-70
2022/06/17 10:12:27;;;;;;;4.07;2.30;;;25.80;99.90;;;;;;5050676;28;20566;-70
2022/06/17 10:15:15;;;;;;;4.95;2.05;;;25.90;99.40;;;;;;5035875;28;20049;-70
2022/06/17 10:21:04;;;;;;;3.83;1.92;;;26.10;99.90;;;;;;5030487;28;20032;-70
2022/06/17 10:23:38;;;;;;;3.40;2.13;;;26.30;98.20;;;;;;5022067;28;20013;-70
2022/06/17 10:26:48;;;;;;;5.68;1.92;;;26.40;97.40;;;;;;5035136;28;20029;-79
2022/06/17 10:29:32;;;;;;;4.90;2.13;;;26.30;94.00;;;;;;5027322;28;20025;-70
2022/06/17 10:31:58;;;;;;;3.10;2.08;;;26.40;94.40;;;;;;5035484;28;20022;-70
2022/06/17 10:34:33;;;;;;;4.35;2.03;;;26.70;94.60;;;;;;5037834;28;20029;-70
2022/06/17 10:37:01;;;;;;;4.78;1.83;;;26.80;92.40;;;;;;5037445;28;20033;-70
2022/06/17 10:39:31;;;;;;;3.70;1.75;;;26.80;93.30;;;;;;5036218;28;20033;-70
2022/06/17 10:41:57;;;;;;;4.93;1.83;;;26.90;94.80;;;;;;5037504;28;20032;-70
2022/06/17 10:44:27;;;;;;;5.85;1.90;;;27.10;91.70;;;;;;5040931;28;20090;-70
2022/06/17 10:47:22;;;;;;;4.50;1.85;;;27.20;89.10;;;;;;5031028;28;20142;-70
2022/06/17 10:50:19;;;;;;;6.45;1.90;;;27.20;90.90;;;;;;5005544;28;20038;-70
2022/06/17 10:52:54;;;;;;;4.13;1.50;;;27.30;91.80;;;;;;5004273;28;20084;-70
2022/06/17 10:55:43;;;;;;;3.33;1.40;;;27.50;85.10;;;;;;5028825;28;20049;-70
2022/06/17 10:58:22;;;;;;;3.33;1.70;;;27.60;83.00;;;;;;5009306;28;20029;-69
2022/06/17 11:00:53;;;;;;;3.15;1.70;;;27.50;83.60;;;;;;5045843;28;20031;-78
2022/06/17 11:03:23;;;;;;;3.58;1.70;;;27.50;85.50;;;;;;5046010;28;20474;-78
2022/06/17 11:05:56;;;;;;;3.75;1.45;;;27.40;80.90;;;;;;5028123;28;20114;-77
2022/06/17 11:08:28;;;;;;;4.32;2.00;;;27.20;83.00;;;;;;5027779;28;20036;-78
2022/06/17 11:10:57;;;;;;;4.90;2.10;;;27.20;83.10;;;;;;5029480;28;20029;-78
2022/06/17 11:13:24;;;;;;;3.58;1.67;;;27.40;89.40;;;;;;5029774;28;20025;-78
2022/06/17 11:15:56;;;;;;;5.22;1.70;;;27.50;83.50;;;;;;5028680;28;20103;-78
2022/06/17 11:18:28;;;;;;;3.35;1.60;;;27.90;85.50;;;;;;5023255;28;20025;-78
2022/06/17 11:20:59;;;;;;;2.33;1.38;;;28.10;84.10;;;;;;5025359;28;20033;-78
2022/06/17 11:23:47;;;;;;;6.35;1.75;;;28.00;77.40;;;;;;5028605;28;20029;-78
2022/06/17 11:26:22;;;;;;;2.67;1.60;;;28.00;84.80;;;;;;5028734;28;20033;-78
2022/06/17 11:28:51;;;;;;;3.20;1.70;;;28.20;86.70;;;;;;5028647;28;20536;-78
2022/06/17 11:31:19;;;;;;;5.30;1.75;;;28.60;84.10;;;;;;5028702;28;20091;-78
2022/06/17 11:33:54;;;;;;;4.15;1.90;;;28.80;82.00;;;;;;5028374;28;20014;-78
2022/06/17 11:36:36;;;;;;;3.35;1.70;;;29.10;81.90;;;;;;5026547;28;20494;-78
2022/06/17 11:39:25;;;;;;;4.07;2.30;;;29.10;81.00;;;;;;5026760;28;20440;-78
2022/06/17 11:41:51;;;;;;;3.60;1.60;;;29.00;75.80;;;;;;5028440;28;20059;-78
2022/06/17 11:44:17;;;;;;;4.55;2.20;;;29.10;73.60;;;;;;5028579;28;20530;-78
2022/06/17 11:46:59;;;;;;;3.00;1.63;;;29.20;78.50;;;;;;5028057;28;20033;-78
2022/06/17 11:49:26;;;;;;;6.28;1.77;;;29.20;77.20;;;;;;5026692;28;20470;-78
2022/06/17 11:52:01;;;;;;;3.05;2.00;;;29.50;73.80;;;;;;5028180;28;20025;-78
2022/06/17 11:54:33;;;;;;;5.60;2.28;;;29.40;75.80;;;;;;5027536;28;20069;-78
2022/06/17 11:57:32;;;;;;;3.95;2.03;;;29.20;79.60;;;;;;5027809;28;20037;-78
2022/06/17 12:00:00;;;;;;;3.20;1.70;;;29.40;78.60;;;;;;5018776;28;20058;-75
2022/06/17 12:02:27;;;;;;;2.40;1.70;;;29.40;78.70;;;;;;5030265;28;20036;-75
2022/06/17 12:05:04;;;;;;;4.85;1.80;;;29.60;77.20;;;;;;5020070;28;20075;-76
2022/06/17 12:07:55;;;;;;;4.35;2.08;;;29.50;76.90;;;;;;5029251;28;20022;-75
2022/06/17 12:10:26;;;;;;;2.85;1.92;;;29.50;77.20;;;;;;5021027;28;20030;-75
2022/06/17 12:12:56;;;;;;;5.40;1.70;;;29.70;76.00;;;;;;5033026;28;20024;-75
2022/06/17 12:15:40;;;;;;;4.35;1.77;;;29.90;73.60;;;;;;5029313;28;20112;-75
2022/06/17 12:18:16;;;;;;;4.60;1.63;;;30.10;72.80;;;;;;5026987;28;20691;-76
2022/06/17 12:21:13;;;;;;;3.70;1.88;;;30.10;73.40;;;;;;5029935;28;20065;-75
2022/06/17 12:23:43;;;;;;;4.80;1.80;;;30.10;73.60;;;;;;5023067;28;20030;-76
2022/06/17 12:26:30;;;;;;;3.03;1.63;;;30.10;73.60;;;;;;5024215;28;20029;-75
2022/06/17 12:29:09;;;;;;;4.25;1.65;;;30.40;67.60;;;;;;5027339;28;20033;-76
2022/06/17 12:31:45;;;;;;;3.33;1.90;;;30.50;72.20;;;;;;5029473;28;20455;-76
2022/06/17 12:34:29;;;;;;;3.95;1.70;;;30.40;72.00;;;;;;5028589;28;20022;-75
2022/06/17 12:37:07;;;;;;;5.20;1.42;;;30.60;70.50;;;;;;5031940;28;20021;-75
2022/06/17 12:39:52;;;;;;;8.95;1.67;;;30.80;72.60;;;;;;5028772;28;20536;-76
2022/06/17 12:42:23;;;;;;;4.95;1.80;;;30.70;67.90;;;;;;5027904;28;20052;-75
2022/06/17 12:45:19;;;;;;;3.47;1.50;;;30.70;68.30;;;;;;5032031;28;20037;-76
2022/06/17 12:48:05;;;;;;;2.85;1.40;;;30.90;68.70;;;;;;5028155;28;20448;-75
2022/06/17 12:53:57;;;;;;;2.35;1.20;;;30.50;65.50;;;;;;5031960;28;20132;-75
2022/06/17 12:56:25;;;;;;;5.38;1.50;;;30.50;71.30;;;;;;5032527;28;20823;-77
2022/06/17 12:59:23;;;;;;;2.72;1.52;;;30.70;67.90;;;;;;5042238;28;20021;-78
2022/06/17 13:01:51;;;;;;;5.38;1.60;;;30.90;69.60;;;;;;5022917;28;20025;-78
2022/06/17 13:04:23;;;;;;;3.47;1.48;;;31.10;68.20;;;;;;5021012;28;20063;-78
2022/06/17 13:07:10;;;;;;;3.75;1.50;;;31.10;68.10;;;;;;5034439;28;20075;-78
2022/06/17 13:09:48;;;;;;;5.63;1.50;;;31.20;65.40;;;;;;5031798;28;20029;-75
2022/06/17 13:12:37;;;;;;;2.92;1.33;;;31.50;64.10;;;;;;5042089;28;20438;-75
2022/06/17 13:15:07;;;;;;;4.30;1.35;;;31.30;61.80;;;;;;5030751;28;20112;-76
2022/06/17 13:17:42;;;;;;;4.80;1.20;;;31.00;63.00;;;;;;5020415;28;20141;-76
2022/06/17 13:20:29;;;;;;;2.92;1.42;;;31.10;64.00;;;;;;5027418;28;20029;-76
2022/06/17 13:23:00;;;;;;;4.65;1.30;;;30.90;65.40;;;;;;5027490;28;20146;-76
2022/06/17 13:25:40;;;;;;;4.35;1.40;;;30.90;64.50;;;;;;5036240;28;20424;-78
2022/06/17 13:28:13;;;;;;;2.60;1.52;;;30.90;64.00;;;;;;5028898;28;20026;-77